< VanCam Weather - WU Station History
^^
Station Historical Data
Daily Summary for April 16, 2018 Units:  Metric    English   Both
« Previous Day
Next Day »
Daily Weekly Monthly Yearly Custom
  High: Low: Average:
Temperature: 10.1 °C 4.4 °C 6.5 °C
Dew Point: 6.3 °C 3.6 °C 4.6 °C
Humidity: 95% 76% 88%
Wind Speed: 25.9km/h 0km/h 7.9km/h
Wind Gust: 25.9km/h - -
Wind- - South
Pressure: 1017.2 hPa 1003.9 hPa -
Precipitation: 0.51 mm    
Historical Graphs
 
 
Tabular Data for April 16, 2018
Time Temperature Dew Point Pressure Wind Wind Speed Wind Gust Humidity Rainfall Rate (Hourly) solar Conditions
00:00 5.7 °C 3.8 °C 1003.9 hPa SSW 4.8 km/h 9.7 km/h 88% 0 mm WeatherDisplay:10.37 W/m2 RA
00:05 5.7 °C 4 °C 1003.9 hPa SSW 18.5 km/h 18.5 km/h 89% 0 mm WeatherDisplay:10.37 W/m2 RA
00:10 5.6 °C 4.1 °C 1003.9 hPa South 11.3 km/h 11.3 km/h 90% 0 mm WeatherDisplay:10.37 W/m2 RA
00:15 5.4 °C 4.1 °C 1003.9 hPa SSE 6.4 km/h 6.4 km/h 91% 0 mm WeatherDisplay:10.37 W/m2 CLR
00:20 5.3 °C 4 °C 1003.9 hPa SE 11.1 km/h 11.1 km/h 91% 0 mm WeatherDisplay:10.37 W/m2 CLR
00:25 5.3 °C 4.1 °C 1003.9 hPa SSE 3.2 km/h 8 km/h 92% 0 mm WeatherDisplay:10.37 W/m2 CLR
00:30 5.2 °C 4.1 °C 1003.9 hPa SE 13 km/h 13 km/h 92% 0 mm WeatherDisplay:10.37 W/m2 CLR
00:35 5.2 °C 4 °C 1003.9 hPa SSE 1.6 km/h 14.5 km/h 92% 0 mm WeatherDisplay:10.37 W/m2 CLR
00:40 5.2 °C 4 °C 1003.9 hPa SSE 3.2 km/h 9.7 km/h 92% 0 mm WeatherDisplay:10.37 W/m2 CLR
00:45 5.2 °C 4 °C 1003.9 hPa WSW 3.2 km/h 11.3 km/h 92% 0 mm WeatherDisplay:10.37 W/m2 CLR
00:50 5.2 °C 4 °C 1003.9 hPa West 4.8 km/h 11.3 km/h 92% 0 mm WeatherDisplay:10.37 W/m2 CLR
00:55 5.2 °C 4 °C 1004.3 hPa NE 8 km/h 19.3 km/h 92% 0 mm WeatherDisplay:10.37 W/m2 CLR
01:00 5.2 °C 3.9 °C 1004.3 hPa SE 14.8 km/h 14.8 km/h 91% 0 mm WeatherDisplay:10.37 W/m2 CLR
01:05 5.2 °C 4.1 °C 1004.3 hPa South 11.3 km/h 11.3 km/h 92% 0 mm WeatherDisplay:10.37 W/m2 CLR
01:10 5.2 °C 3.9 °C 1004.3 hPa South 9.7 km/h 9.7 km/h 91% 0 mm WeatherDisplay:10.37 W/m2 CLR
01:15 5.2 °C 3.8 °C 1004.6 hPa SW 5.6 km/h 5.6 km/h 91% 0 mm WeatherDisplay:10.37 W/m2 CLR
01:20 5.2 °C 4 °C 1004.6 hPa South 3.7 km/h 3.7 km/h 92% 0 mm WeatherDisplay:10.37 W/m2 CLR
01:25 5.2 °C 4 °C 1004.6 hPa SSW 8 km/h 8 km/h 92% 0 mm WeatherDisplay:10.37 W/m2 CLR
01:30 5.2 °C 4 °C 1005 hPa SSW 7.4 km/h 7.4 km/h 92% 0 mm WeatherDisplay:10.37 W/m2 CLR
01:35 5.2 °C 3.8 °C 1004.6 hPa NNE 11.1 km/h 11.1 km/h 91% 0 mm WeatherDisplay:10.37 W/m2 CLR
01:40 5.2 °C 4 °C 1005 hPa WSW 3.7 km/h 3.7 km/h 92% 0 mm WeatherDisplay:10.37 W/m2 CLR
01:45 5.2 °C 4 °C 1005 hPa SSW 11.1 km/h 11.1 km/h 92% 0 mm WeatherDisplay:10.37 W/m2 CLR
01:50 5.2 °C 4 °C 1005 hPa SSW 11.3 km/h 11.3 km/h 92% 0 mm WeatherDisplay:10.37 W/m2 CLR
01:55 5.1 °C 3.9 °C 1005 hPa SSW 1.6 km/h 11.3 km/h 92% 0 mm WeatherDisplay:10.37 W/m2 CLR
02:00 5.1 °C 3.9 °C 1005 hPa ENE 11.1 km/h 11.1 km/h 92% 0 mm WeatherDisplay:10.37 W/m2 CLR
02:05 5.1 °C 4 °C 1005 hPa NE 1.6 km/h 12.9 km/h 93% 0 mm WeatherDisplay:10.37 W/m2 CLR
02:10 5 °C 3.9 °C 1005 hPa SSW 5.6 km/h 5.6 km/h 93% 0 mm WeatherDisplay:10.37 W/m2 CLR
02:15 4.9 °C 3.9 °C 1005 hPa West 5.6 km/h 5.6 km/h 93% 0 mm WeatherDisplay:10.37 W/m2 CLR
02:20 4.9 °C 3.9 °C 1005 hPa SSE 14.5 km/h 14.5 km/h 93% 0 mm WeatherDisplay:10.37 W/m2 CLR
02:25 4.9 °C 4.1 °C 1005 hPa SW 3.2 km/h 16.1 km/h 94% 0 mm WeatherDisplay:10.37 W/m2 CLR
02:30 4.9 °C 3.8 °C 1005 hPa South 12.9 km/h 12.9 km/h 93% 0 mm WeatherDisplay:10.37 W/m2 CLR
02:35 4.9 °C 3.8 °C 1005.3 hPa SW 1.6 km/h 12.9 km/h 93% 0 mm WeatherDisplay:10.37 W/m2 CLR
02:40 4.9 °C 3.8 °C 1005.3 hPa NNW 1.9 km/h 1.9 km/h 93% 0 mm WeatherDisplay:10.37 W/m2 CLR
02:45 4.9 °C 4 °C 1005.3 hPa SE 5.6 km/h 5.6 km/h 94% 0 mm WeatherDisplay:10.37 W/m2 CLR
02:50 4.8 °C 3.8 °C 1005.3 hPa SW 4.8 km/h 12.9 km/h 93% 0 mm WeatherDisplay:10.37 W/m2 CLR
02:55 4.8 °C 3.9 °C 1005.3 hPa SW 3.2 km/h 12.9 km/h 94% 0 mm WeatherDisplay:10.37 W/m2 CLR
03:00 4.8 °C 3.7 °C 1005.3 hPa SW 8 km/h 24.1 km/h 93% 0 mm WeatherDisplay:10.37 W/m2 CLR
03:05 4.7 °C 3.8 °C 1005.6 hPa South 11.3 km/h 20.9 km/h 94% 0 mm WeatherDisplay:10.37 W/m2 CLR
03:10 4.7 °C 3.8 °C 1005.6 hPa South 1.6 km/h 8 km/h 94% 0 mm WeatherDisplay:10.37 W/m2 CLR
03:15 4.7 °C 3.8 °C 1005.6 hPa Calm   6.4 km/h 94% 0 mm WeatherDisplay:10.37 W/m2 CLR
03:20 4.7 °C 3.8 °C 1005.6 hPa WSW 8 km/h 19.3 km/h 94% 0 mm WeatherDisplay:10.37 W/m2 CLR
03:25 4.7 °C 3.8 °C 1005.6 hPa South 1.6 km/h 16.1 km/h 94% 0 mm WeatherDisplay:10.37 W/m2 CLR
03:30 4.7 °C 3.8 °C 1006 hPa SSE 8 km/h 19.3 km/h 94% 0 mm WeatherDisplay:10.37 W/m2 CLR
03:35 4.7 °C 3.8 °C 1006 hPa South 12.9 km/h 19.3 km/h 94% 0 mm WeatherDisplay:10.37 W/m2 CLR
03:40 4.7 °C 3.8 °C 1006 hPa WSW 3.7 km/h 3.7 km/h 94% 0 mm WeatherDisplay:10.37 W/m2 CLR
03:45 4.7 °C 3.8 °C 1006 hPa WSW 7.4 km/h 7.4 km/h 94% 0 mm WeatherDisplay:10.37 W/m2 CLR
03:50 4.7 °C 3.8 °C 1006 hPa SSW 14.5 km/h 14.5 km/h 94% 0 mm WeatherDisplay:10.37 W/m2 CLR
03:55 4.7 °C 3.8 °C 1006.3 hPa East 5.6 km/h 5.6 km/h 94% 0 mm WeatherDisplay:10.37 W/m2 CLR
04:00 4.7 °C 3.8 °C 1006.3 hPa South 6.4 km/h 6.4 km/h 94% 0 mm WeatherDisplay:10.37 W/m2 CLR
04:05 4.7 °C 3.8 °C 1006.3 hPa WSW 3.2 km/h 3.2 km/h 94% 0 mm WeatherDisplay:10.37 W/m2 CLR
04:10 4.7 °C 3.9 °C 1006.3 hPa SSW 4.8 km/h 7.4 km/h 95% 0 mm WeatherDisplay:10.37 W/m2 CLR
04:15 4.6 °C 3.7 °C 1006.3 hPa SSW 12.9 km/h 12.9 km/h 94% 0 mm WeatherDisplay:10.37 W/m2 CLR
04:20 4.6 °C 3.7 °C 1006.3 hPa SSW 16.7 km/h 16.7 km/h 94% 0 mm WeatherDisplay:10.37 W/m2 CLR
04:25 4.6 °C 3.7 °C 1006.7 hPa NE 5.6 km/h 5.6 km/h 94% 0 mm WeatherDisplay:10.37 W/m2 CLR
04:30 4.6 °C 3.7 °C 1006.7 hPa ESE 5.6 km/h 5.6 km/h 94% 0 mm WeatherDisplay:10.37 W/m2 CLR
04:35 4.6 °C 3.7 °C 1006.7 hPa SSW 5.6 km/h 5.6 km/h 94% 0 mm WeatherDisplay:10.37 W/m2 CLR
04:40 4.6 °C 3.7 °C 1006.7 hPa SW 8 km/h 8 km/h 94% 0 mm WeatherDisplay:10.37 W/m2 CLR
04:45 4.6 °C 3.7 °C 1007 hPa ESE 5.6 km/h 8.4 km/h 94% 0 mm WeatherDisplay:10.37 W/m2 CLR
04:50 4.5 °C 3.6 °C 1007 hPa SW 22.2 km/h 22.2 km/h 94% 0 mm WeatherDisplay:10.37 W/m2 CLR
04:55 4.5 °C 3.6 °C 1007 hPa South 5.6 km/h 5.6 km/h 94% 0 mm WeatherDisplay:10.37 W/m2 CLR
05:00 4.5 °C 3.6 °C 1007 hPa SSW 9.3 km/h 9.3 km/h 94% 0 mm WeatherDisplay:10.37 W/m2 CLR
05:05 4.4 °C 3.6 °C 1007 hPa SSW 7.4 km/h 7.4 km/h 94% 0 mm WeatherDisplay:10.37 W/m2 CLR
05:10 4.4 °C 3.6 °C 1007 hPa SSE 6.4 km/h 6.4 km/h 94% 0 mm WeatherDisplay:10.37 W/m2 CLR
05:15 4.4 °C 3.6 °C 1007 hPa East 3.7 km/h 3.7 km/h 94% 0 mm WeatherDisplay:10.37 W/m2 CLR
05:20 4.4 °C 3.7 °C 1007 hPa SSW 13 km/h 13 km/h 95% 0 mm WeatherDisplay:10.37 W/m2 CLR
05:25 4.4 °C 3.7 °C 1007 hPa SSW 3.7 km/h 3.7 km/h 95% 0 mm WeatherDisplay:10.37 W/m2 CLR
05:30 4.5 °C 3.8 °C 1007.3 hPa SSW 13 km/h 13 km/h 95% 0 mm WeatherDisplay:10.37 W/m2 CLR
05:35 4.5 °C 3.8 °C 1007.3 hPa SSW 9.3 km/h 9.3 km/h 95% 0 mm WeatherDisplay:10.37 W/m2 CLR
05:40 4.5 °C 3.8 °C 1007.3 hPa South 4.8 km/h 4.8 km/h 95% 0 mm WeatherDisplay:10.37 W/m2 CLR
05:45 4.5 °C 3.8 °C 1007.3 hPa West 9.7 km/h 9.7 km/h 95% 0 mm WeatherDisplay:10.37 W/m2 CLR
05:50 4.5 °C 3.8 °C 1007.7 hPa SSE 5.6 km/h 5.6 km/h 95% 0 mm WeatherDisplay:10.37 W/m2 CLR
05:55 4.5 °C 3.6 °C 1007.7 hPa SSW 5.6 km/h 5.6 km/h 94% 0 mm WeatherDisplay:10.37 W/m2 CLR
06:00 4.5 °C 3.6 °C 1007.7 hPa ESE 5.6 km/h 5.6 km/h 94% 0 mm WeatherDisplay:10.37 W/m2 CLR
06:05 4.4 °C 3.6 °C 1007.7 hPa ENE 5.6 km/h 5.6 km/h 94% 0 mm WeatherDisplay:10.37 W/m2 CLR
06:10 4.5 °C 3.6 °C 1007.7 hPa SW 3.7 km/h 3.7 km/h 94% 0 mm WeatherDisplay:10.37 W/m2 CLR
06:15 4.5 °C 3.8 °C 1007.7 hPa SW 1.9 km/h 1.9 km/h 95% 0 mm WeatherDisplay:10.37 W/m2 CLR
06:20 4.4 °C 3.7 °C 1008 hPa SW 3.7 km/h 3.7 km/h 95% 0 mm WeatherDisplay:10.37 W/m2 CLR
06:25 4.4 °C 3.6 °C 1008 hPa ESE 3.7 km/h 3.7 km/h 94% 0 mm WeatherDisplay:10.37 W/m2 CLR
06:30 4.4 °C 3.6 °C 1008 hPa SSW 5.6 km/h 5.6 km/h 94% 0 mm WeatherDisplay:10.37 W/m2 CLR
06:35 4.4 °C 3.6 °C 1008 hPa SSW 9.3 km/h 9.3 km/h 94% 0 mm WeatherDisplay:10.37 W/m2 CLR
06:40 4.4 °C 3.7 °C 1008 hPa WNW 3.7 km/h 3.7 km/h 95% 0 mm WeatherDisplay:10.37 W/m2 CLR
06:45 4.4 °C 3.7 °C 1008 hPa SSW 5.6 km/h 5.6 km/h 95% 0 mm WeatherDisplay:10.37 W/m2 CLR
06:50 4.4 °C 3.7 °C 1008 hPa SSW 3.7 km/h 3.7 km/h 95% 0.25 mm WeatherDisplay:10.37 W/m2 RA
06:55 4.5 °C 3.8 °C 1008.4 hPa WSW 5.6 km/h 5.6 km/h 95% 0.25 mm WeatherDisplay:10.37 W/m2 RA
07:00 4.5 °C 3.6 °C 1008.4 hPa SSE 3.7 km/h 3.7 km/h 94% 0.25 mm WeatherDisplay:10.37 W/m2
07:05 4.6 °C 3.7 °C 1008.4 hPa SSE 5.6 km/h 5.6 km/h 94% 0.25 mm WeatherDisplay:10.37 W/m2
07:10 4.6 °C 3.7 °C 1008.4 hPa SW 7.4 km/h 7.4 km/h 94% 0.25 mm WeatherDisplay:10.37 W/m2
07:15 4.6 °C 3.7 °C 1008.7 hPa ESE 3.7 km/h 3.7 km/h 94% 0.25 mm WeatherDisplay:10.37 W/m2
07:20 4.6 °C 3.7 °C 1008.7 hPa SSE 1.9 km/h 1.9 km/h 94% 0.25 mm WeatherDisplay:10.37 W/m2
07:25 4.6 °C 3.7 °C 1008.7 hPa SSW 14.8 km/h 14.8 km/h 94% 0.25 mm WeatherDisplay:10.37 W/m2
07:30 4.6 °C 3.7 °C 1008.7 hPa SW 5.6 km/h 5.6 km/h 94% 0.25 mm WeatherDisplay:10.37 W/m2
07:35 4.6 °C 3.7 °C 1008.7 hPa ENE 3.7 km/h 3.7 km/h 94% 0.25 mm WeatherDisplay:10.37 W/m2
07:40 4.7 °C 3.8 °C 1008.7 hPa East 3.7 km/h 3.7 km/h 94% 0.25 mm WeatherDisplay:10.37 W/m2
07:45 4.7 °C 3.8 °C 1008.7 hPa South 1.9 km/h 1.9 km/h 94% 0.25 mm WeatherDisplay:10.37 W/m2
07:50 4.7 °C 4 °C 1009 hPa SSW 5.6 km/h 5.6 km/h 95% 0 mm WeatherDisplay:10.37 W/m2 CLR
07:55 4.8 °C 3.9 °C 1009 hPa SW 5.6 km/h 5.6 km/h 94% 0 mm WeatherDisplay:10.37 W/m2 CLR
08:00 4.8 °C 3.9 °C 1009 hPa SW 3.7 km/h 3.7 km/h 94% 0 mm WeatherDisplay:10.37 W/m2 CLR
08:05 4.8 °C 3.9 °C 1009 hPa South 3.7 km/h 3.7 km/h 94% 0 mm WeatherDisplay:10.37 W/m2 CLR
08:10 4.8 °C 3.8 °C 1009.4 hPa ENE 6.4 km/h 6.4 km/h 93% 0 mm WeatherDisplay:10.37 W/m2 CLR
08:15 4.8 °C 3.8 °C 1009.4 hPa ENE 4.8 km/h 4.8 km/h 93% 0 mm WeatherDisplay:10.37 W/m2 CLR
08:20 4.8 °C 3.7 °C 1009.4 hPa SW 5.6 km/h 5.6 km/h 92% 0 mm WeatherDisplay:10.37 W/m2 CLR
08:25 4.8 °C 3.8 °C 1009.4 hPa SW 5.6 km/h 5.6 km/h 93% 0 mm WeatherDisplay:10.37 W/m2 CLR
08:30 4.8 °C 3.8 °C 1009.4 hPa East 1.9 km/h 1.9 km/h 93% 0 mm WeatherDisplay:10.37 W/m2 CLR
08:35 4.8 °C 3.8 °C 1009.7 hPa ESE 5.6 km/h 5.6 km/h 93% 0 mm WeatherDisplay:10.37 W/m2 CLR
08:40 4.8 °C 3.8 °C 1009.7 hPa SSE 3.7 km/h 3.7 km/h 93% 0 mm WeatherDisplay:10.37 W/m2 CLR
08:45 4.8 °C 3.8 °C 1009.7 hPa ESE 5.6 km/h 5.6 km/h 93% 0 mm WeatherDisplay:10.37 W/m2 CLR
08:50 4.9 °C 3.8 °C 1009.7 hPa SSE 7.4 km/h 7.4 km/h 93% 0 mm WeatherDisplay:10.37 W/m2 CLR
08:55 4.9 °C 3.8 °C 1009.7 hPa SSW 1.9 km/h   93% 0 mm WeatherDisplay:10.37 W/m2 CLR
09:00 4.9 °C 3.9 °C 1009.7 hPa South 5.6 km/h 5.6 km/h 93% 0 mm WeatherDisplay:10.37 W/m2 CLR
09:05 4.9 °C 3.8 °C 1009.7 hPa NE 5.6 km/h 5.6 km/h 92% 0 mm WeatherDisplay:10.37 W/m2 CLR
09:10 5 °C 3.9 °C 1009.7 hPa ESE 1.9 km/h 1.9 km/h 93% 0 mm WeatherDisplay:10.37 W/m2 CLR
09:15 5.1 °C 4 °C 1009.7 hPa West 7.4 km/h 7.4 km/h 93% 0 mm WeatherDisplay:10.37 W/m2 CLR
09:20 5.1 °C 3.9 °C 1009.7 hPa SW 5.6 km/h 5.6 km/h 92% 0 mm WeatherDisplay:10.37 W/m2 CLR
09:25 5.2 °C 4.2 °C 1009.7 hPa SSW 5.6 km/h 5.6 km/h 93% 0 mm WeatherDisplay:10.37 W/m2 CLR
09:30 5.3 °C 4.3 °C 1009.7 hPa ESE 7.4 km/h 7.4 km/h 93% 0 mm WeatherDisplay:10.37 W/m2 CLR
09:35 5.4 °C 4.2 °C 1010 hPa South 17.7 km/h 17.7 km/h 92% 0 mm WeatherDisplay:10.37 W/m2 CLR
09:40 5.4 °C 4.2 °C 1010 hPa West 3.7 km/h 3.7 km/h 92% 0 mm WeatherDisplay:10.37 W/m2 CLR
09:45 5.5 °C 4.3 °C 1010 hPa SSW 5.6 km/h 5.6 km/h 92% 0 mm WeatherDisplay:10.37 W/m2 CLR
09:50 5.6 °C 4.4 °C 1010 hPa ESE 5.6 km/h 5.6 km/h 92% 0 mm WeatherDisplay:10.37 W/m2 CLR
09:55 5.7 °C 4.4 °C 1010 hPa NNW 5.6 km/h 5.6 km/h 91% 0 mm WeatherDisplay:10.37 W/m2 CLR
10:00 5.8 °C 4.3 °C 1010 hPa SSW 6.4 km/h 6.4 km/h 90% 0 mm WeatherDisplay:10.37 W/m2 CLR
10:05 5.8 °C 4.3 °C 1010 hPa SSW 16.7 km/h 16.7 km/h 90% 0 mm WeatherDisplay:10.37 W/m2 CLR
10:10 5.8 °C 4.4 °C 1010.4 hPa East 5.6 km/h 5.6 km/h 91% 0 mm WeatherDisplay:10.37 W/m2 CLR
10:15 5.8 °C 4.3 °C 1010.4 hPa West 5.6 km/h 5.6 km/h 90% 0 mm WeatherDisplay:10.37 W/m2 CLR
10:20 5.8 °C 4.3 °C 1010.4 hPa SW 14.8 km/h 14.8 km/h 90% 0 mm WeatherDisplay:10.37 W/m2 CLR
10:25 5.8 °C 4.1 °C 1010.4 hPa SSE 9.3 km/h 9.3 km/h 89% 0 mm WeatherDisplay:10.37 W/m2 CLR
10:30 5.8 °C 4.3 °C 1010.4 hPa SSW 5.6 km/h 5.6 km/h 90% 0 mm WeatherDisplay:10.37 W/m2 CLR
10:35 5.9 °C 4.4 °C 1010.4 hPa South 3.7 km/h 3.7 km/h 90% 0 mm WeatherDisplay:10.37 W/m2 CLR
10:40 5.9 °C 4.4 °C 1010.7 hPa SE 5.6 km/h 5.6 km/h 90% 0 mm WeatherDisplay:10.37 W/m2 CLR
10:45 6.1 °C 4.7 °C 1010.7 hPa South 3.7 km/h 3.7 km/h 91% 0 mm WeatherDisplay:10.37 W/m2 CLR
10:50 6.1 °C 4.6 °C 1010.7 hPa SW 11.1 km/h 11.1 km/h 90% 0 mm WeatherDisplay:10.37 W/m2 CLR
10:55 6.1 °C 4.4 °C 1010.7 hPa ESE 7.4 km/h 7.4 km/h 89% 0 mm WeatherDisplay:10.37 W/m2 CLR
11:00 6.2 °C 4.9 °C 1010.7 hPa SSE 6.4 km/h 6.4 km/h 91% 0 mm WeatherDisplay:10.37 W/m2 CLR
11:05 6.3 °C 4.4 °C 1010.7 hPa SSW 14.8 km/h 14.8 km/h 88% 0 mm WeatherDisplay:10.37 W/m2 CLR
11:10 6.3 °C 4.7 °C 1011.1 hPa South 11.1 km/h 11.1 km/h 89% 0 mm WeatherDisplay:10.37 W/m2 CLR
11:15 6.4 °C 4.8 °C 1010.7 hPa WSW 6.4 km/h 6.4 km/h 89% 0 mm WeatherDisplay:10.37 W/m2 CLR
11:20 6.5 °C 4.8 °C 1011.1 hPa SW 9.3 km/h 9.3 km/h 89% 0 mm WeatherDisplay:10.37 W/m2 CLR
11:22 6.5 °C 4.7 °C 1011.1 hPa SW 5.6 km/h 5.6 km/h 88% 0 mm WeatherDisplay:10.37 W/m2 CLR
11:27 6.6 °C 4.8 °C 1011.1 hPa South 7.4 km/h 7.4 km/h 88% 0 mm WeatherDisplay:10.37 W/m2 CLR
11:32 6.7 °C 4.9 °C 1011.1 hPa South 8 km/h 8 km/h 88% 0 mm WeatherDisplay:10.37 W/m2 CLR
11:37 6.8 °C 4.8 °C 1011.1 hPa East 7.4 km/h 7.4 km/h 87% 0 mm WeatherDisplay:10.37 W/m2 CLR
11:42 6.8 °C 4.8 °C 1011.1 hPa WNW 16.7 km/h 16.7 km/h 87% 0 mm WeatherDisplay:10.37 W/m2 CLR
11:47 6.9 °C 4.7 °C 1011.1 hPa WSW 5.6 km/h 5.6 km/h 86% 0 mm WeatherDisplay:10.37 W/m2 CLR
11:52 6.9 °C 4.7 °C 1011.4 hPa SE 11.1 km/h 11.1 km/h 86% 0 mm WeatherDisplay:10.37 W/m2 CLR
11:57 6.9 °C 5.1 °C 1011.4 hPa West 11.3 km/h 11.3 km/h 88% 0 mm WeatherDisplay:10.37 W/m2 CLR
12:02 6.9 °C 4.8 °C 1011.4 hPa South 7.4 km/h 7.4 km/h 86% 0 mm WeatherDisplay:10.37 W/m2 CLR
12:07 7 °C 5 °C 1011.4 hPa SW 11.1 km/h 11.1 km/h 87% 0 mm WeatherDisplay:10.37 W/m2 CLR
12:12 7.1 °C 4.9 °C 1011.4 hPa NNE 7.4 km/h 7.4 km/h 86% 0 mm WeatherDisplay:10.37 W/m2 CLR
12:17 7.3 °C 5 °C 1011.4 hPa SSW 7.4 km/h 7.4 km/h 85% 0 mm WeatherDisplay:10.37 W/m2 CLR
12:22 7.4 °C 5.1 °C 1011.4 hPa South 5.6 km/h 5.6 km/h 85% 0 mm WeatherDisplay:10.37 W/m2 CLR
12:27 7.4 °C 5.1 °C 1011.4 hPa East 5.6 km/h 5.6 km/h 85% 0 mm WeatherDisplay:10.37 W/m2 CLR
12:30 7.3 °C 4.8 °C 1011.4 hPa WSW 16.7 km/h 16.7 km/h 84% 0 mm WeatherDisplay:10.37 W/m2 CLR
12:35 7.4 °C 5.2 °C 1011.4 hPa SSW 16.7 km/h 16.7 km/h 86% 0 mm WeatherDisplay:10.37 W/m2 CLR
12:40 7.4 °C 5.1 °C 1011.4 hPa South 5.6 km/h 5.6 km/h 85% 0 mm WeatherDisplay:10.37 W/m2 CLR
12:45 7.4 °C 4.9 °C 1011.7 hPa WNW 7.4 km/h 7.4 km/h 84% 0 mm WeatherDisplay:10.37 W/m2 CLR
12:50 7.5 °C 4.9 °C 1011.7 hPa SW 11.1 km/h 11.1 km/h 84% 0 mm WeatherDisplay:10.37 W/m2 CLR
12:55 7.6 °C 4.9 °C 1011.7 hPa SW 16.7 km/h 16.7 km/h 83% 0 mm WeatherDisplay:10.37 W/m2 CLR
13:00 7.8 °C 5.1 °C 1011.7 hPa South 11.1 km/h 11.1 km/h 83% 0 mm WeatherDisplay:10.37 W/m2 CLR
13:05 8 °C 5.5 °C 1011.7 hPa SSW 8 km/h 14.5 km/h 84% 0 mm WeatherDisplay:10.37 W/m2 CLR
13:10 8.4 °C 5.8 °C 1011.7 hPa SW 11.3 km/h 11.3 km/h 84% 0 mm WeatherDisplay:10.37 W/m2 CLR
13:15 8.6 °C 5.5 °C 1011.7 hPa ESE 7.4 km/h 7.4 km/h 81% 0 mm WeatherDisplay:10.37 W/m2 CLR
13:20 8.5 °C 5.2 °C 1011.7 hPa SSE 11.1 km/h 11.1 km/h 80% 0 mm WeatherDisplay:10.37 W/m2 CLR
13:25 8.3 °C 5.2 °C 1011.7 hPa SW 16.7 km/h 16.7 km/h 81% 0 mm WeatherDisplay:10.37 W/m2 CLR
13:30 8.2 °C 5.1 °C 1011.7 hPa SSW 5.6 km/h 5.6 km/h 81% 0 mm WeatherDisplay:10.37 W/m2 CLR
13:35 8.2 °C 5.4 °C 1011.7 hPa SW 11.1 km/h 11.1 km/h 83% 0 mm WeatherDisplay:10.37 W/m2 CLR
13:40 8.2 °C 5.2 °C 1011.7 hPa WNW 7.4 km/h 7.4 km/h 81% 0 mm WeatherDisplay:10.37 W/m2 CLR
13:45 8.3 °C 5.6 °C 1011.7 hPa South 3.7 km/h 3.7 km/h 83% 0 mm WeatherDisplay:10.37 W/m2 CLR
13:50 8.2 °C 5.5 °C 1011.7 hPa SSW 3.7 km/h 3.7 km/h 83% 0 mm WeatherDisplay:10.37 W/m2 CLR
13:55 8.1 °C 5.7 °C 1011.7 hPa WNW 3.7 km/h 3.7 km/h 85% 0 mm WeatherDisplay:10.37 W/m2 CLR
14:00 7.9 °C 5.6 °C 1011.7 hPa ENE 7.4 km/h 7.4 km/h 85% 0 mm WeatherDisplay:10.37 W/m2 CLR
14:05 7.9 °C 5.5 °C 1011.7 hPa South 11.1 km/h 11.1 km/h 85% 0 mm WeatherDisplay:10.37 W/m2 CLR
14:10 7.9 °C 5.7 °C 1011.7 hPa South 9.3 km/h 9.3 km/h 86% 0 mm WeatherDisplay:10.37 W/m2 CLR
14:15 8 °C 5.6 °C 1011.7 hPa SSE 5.6 km/h 5.6 km/h 85% 0 mm WeatherDisplay:10.37 W/m2 CLR
14:20 8.2 °C 5.7 °C 1011.7 hPa SW 8 km/h 8 km/h 84% 0 mm WeatherDisplay:10.37 W/m2 CLR
14:25 8.6 °C 5.7 °C 1012.1 hPa SSW 20.4 km/h 20.4 km/h 82% 0 mm WeatherDisplay:10.37 W/m2 CLR
14:30 8.8 °C 5.9 °C 1012.1 hPa SSW 9.3 km/h 9.3 km/h 82% 0 mm WeatherDisplay:10.37 W/m2 CLR
14:35 8.9 °C 5.5 °C 1012.1 hPa SSW 16.7 km/h 16.7 km/h 79% 0 mm WeatherDisplay:10.37 W/m2 CLR
14:40 8.8 °C 5 °C 1012.1 hPa South 25.9 km/h 25.9 km/h 77% 0 mm WeatherDisplay:10.37 W/m2 CLR
14:45 8.8 °C 5.2 °C 1012.1 hPa SSW 13 km/h 13 km/h 78% 0 mm WeatherDisplay:10.37 W/m2 CLR
14:50 8.8 °C 5.5 °C 1012.4 hPa South 9.7 km/h 9.7 km/h 80% 0 mm WeatherDisplay:10.37 W/m2 CLR
14:55 8.8 °C 5.2 °C 1012.1 hPa SSE 13 km/h 13 km/h 78% 0 mm WeatherDisplay:10.37 W/m2 CLR
15:00 8.9 °C 5.3 °C 1012.1 hPa West 11.1 km/h 11.1 km/h 78% 0 mm WeatherDisplay:10.37 W/m2 CLR
15:05 9 °C 5.9 °C 1012.1 hPa WSW 11.1 km/h 11.1 km/h 81% 0 mm WeatherDisplay:10.37 W/m2 CLR
15:10 9.1 °C 5.6 °C 1012.4 hPa WSW 7.4 km/h 7.4 km/h 79% 0 mm WeatherDisplay:10.37 W/m2 CLR
15:15 9.2 °C 5.3 °C 1012.4 hPa SSW 9.3 km/h 9.3 km/h 77% 0 mm WeatherDisplay:10.37 W/m2 CLR
15:20 9.1 °C 5.1 °C 1012.4 hPa WSW 13 km/h 13 km/h 76% 0 mm WeatherDisplay:10.37 W/m2 CLR
15:25 8.9 °C 4.9 °C 1012.4 hPa WSW 18.5 km/h 18.5 km/h 76% 0 mm WeatherDisplay:10.37 W/m2 CLR
15:30 8.8 °C 4.8 °C 1012.4 hPa East 5.6 km/h 5.6 km/h 76% 0 mm WeatherDisplay:10.37 W/m2 CLR
15:35 8.7 °C 5.4 °C 1012.1 hPa South 7.4 km/h 7.4 km/h 80% 0 mm WeatherDisplay:10.37 W/m2 CLR
15:40 8.7 °C 5.2 °C 1012.4 hPa NW 11.1 km/h 11.1 km/h 79% 0 mm WeatherDisplay:10.37 W/m2 CLR
15:45 9.1 °C 6.3 °C 1012.4 hPa SSW 8 km/h 8 km/h 83% 0 mm WeatherDisplay:10.37 W/m2 CLR
15:50 9.6 °C 5.7 °C 1012.4 hPa SSW 7.4 km/h 7.4 km/h 77% 0 mm WeatherDisplay:10.37 W/m2 CLR
15:55 9.8 °C 5.7 °C 1012.4 hPa SW 8 km/h 8 km/h 76% 0 mm WeatherDisplay:10.37 W/m2 CLR
16:00 9.8 °C 5.8 °C 1012.4 hPa SSE 9.3 km/h 9.3 km/h 76% 0 mm WeatherDisplay:10.37 W/m2 CLR
16:05 9.9 °C 5.9 °C 1012.4 hPa South 9.7 km/h 9.7 km/h 76% 0 mm WeatherDisplay:10.37 W/m2 CLR
16:10 10.1 °C 6 °C 1012.4 hPa SSW 4.8 km/h 4.8 km/h 76% 0 mm WeatherDisplay:10.37 W/m2 CLR
16:15 10 °C 6.2 °C 1012.4 hPa SSW 7.4 km/h 7.4 km/h 77% 0 mm WeatherDisplay:10.37 W/m2 CLR
16:20 9.7 °C 5.7 °C 1012.4 hPa South 18.5 km/h 18.5 km/h 76% 0 mm WeatherDisplay:10.37 W/m2 CLR
16:25 9.3 °C 5.7 °C 1012.4 hPa WSW 11.1 km/h 11.1 km/h 78% 0 mm WeatherDisplay:10.37 W/m2 CLR
16:30 9.1 °C 5.5 °C 1012.8 hPa WSW 13 km/h 13 km/h 78% 0 mm WeatherDisplay:10.37 W/m2 CLR
16:35 8.7 °C 5.4 °C 1012.8 hPa SW 11.1 km/h 11.1 km/h 80% 0.25 mm WeatherDisplay:10.37 W/m2 RA
16:40 8.4 °C 5.7 °C 1012.8 hPa South 8 km/h 8 km/h 83% 0.25 mm WeatherDisplay:10.37 W/m2 RA
16:45 8.2 °C 5.7 °C 1013.1 hPa SSE 9.7 km/h 9.7 km/h 84% 0.25 mm WeatherDisplay:10.37 W/m2
16:50 8.5 °C 6.3 °C 1012.8 hPa West 5.6 km/h 5.6 km/h 86% 0.25 mm WeatherDisplay:10.37 W/m2
16:55 9 °C 6.3 °C 1012.8 hPa South 9.3 km/h 9.3 km/h 83% 0.25 mm WeatherDisplay:10.37 W/m2
17:00 8.9 °C 6.1 °C 1013.1 hPa WSW 9.3 km/h 9.3 km/h 82% 0.25 mm WeatherDisplay:10.37 W/m2
17:05 8.9 °C 6 °C 1013.1 hPa SSE 6.4 km/h 6.4 km/h 82% 0.25 mm WeatherDisplay:10.37 W/m2
17:10 8.8 °C 6.1 °C 1013.1 hPa South 14.5 km/h 14.5 km/h 83% 0.25 mm WeatherDisplay:10.37 W/m2
17:15 8.6 °C 5.7 °C 1013.1 hPa NNW 5.6 km/h 5.6 km/h 82% 0.25 mm WeatherDisplay:10.37 W/m2
17:20 8.7 °C 5.4 °C 1013.1 hPa SSE 14.8 km/h 14.8 km/h 80% 0.25 mm WeatherDisplay:10.37 W/m2
17:25 8.7 °C 5.1 °C 1013.1 hPa West 9.3 km/h 9.3 km/h 78% 0.25 mm WeatherDisplay:10.37 W/m2
17:30 8.8 °C 5.2 °C 1013.1 hPa SSW 6.4 km/h 6.4 km/h 78% 0.25 mm WeatherDisplay:10.37 W/m2
17:35 8.9 °C 5.3 °C 1013.1 hPa SSW 13 km/h 13 km/h 78% 0 mm WeatherDisplay:10.37 W/m2 CLR
17:40 9.2 °C 6.1 °C 1013.1 hPa SE 3.7 km/h 3.7 km/h 81% 0 mm WeatherDisplay:10.37 W/m2 CLR
17:45 9.3 °C 6.1 °C 1013.1 hPa SSW 3.7 km/h 3.7 km/h 80% 0 mm WeatherDisplay:10.37 W/m2 CLR
17:50 9.3 °C 5.8 °C 1013.4 hPa South 6.4 km/h 6.4 km/h 79% 0 mm WeatherDisplay:10.37 W/m2 CLR
17:55 9.2 °C 5.9 °C 1013.4 hPa SSE 16.7 km/h 16.7 km/h 80% 0 mm WeatherDisplay:10.37 W/m2 CLR
18:00 9 °C 5.9 °C 1013.4 hPa SSW 18.5 km/h 18.5 km/h 81% 0 mm WeatherDisplay:10.37 W/m2 CLR
18:05 8.7 °C 5.7 °C 1013.4 hPa ESE 13 km/h 13 km/h 81% 0 mm WeatherDisplay:10.37 W/m2 CLR
18:10 8.4 °C 5.6 °C 1013.4 hPa SSW 5.6 km/h 5.6 km/h 82% 0 mm WeatherDisplay:10.37 W/m2 CLR
18:15 8.3 °C 5.2 °C 1013.8 hPa WSW 9.3 km/h 9.3 km/h 81% 0 mm WeatherDisplay:10.37 W/m2 CLR
18:20 8.2 °C 5.4 °C 1013.8 hPa SSW 7.4 km/h 7.4 km/h 83% 0 mm WeatherDisplay:10.37 W/m2 CLR
18:25 8.1 °C 5.5 °C 1013.8 hPa South 3.7 km/h 3.7 km/h 84% 0 mm WeatherDisplay:10.37 W/m2 CLR
18:30 8.1 °C 5.5 °C 1013.8 hPa SSW 11.1 km/h 11.1 km/h 84% 0 mm WeatherDisplay:10.37 W/m2 CLR
18:35 8.1 °C 5.7 °C 1013.8 hPa SW 6.4 km/h 6.4 km/h 85% 0 mm WeatherDisplay:10.37 W/m2 CLR
18:40 8.1 °C 5.3 °C 1013.8 hPa South 11.3 km/h 11.3 km/h 83% 0 mm WeatherDisplay:10.37 W/m2 CLR
18:45 8.1 °C 5.4 °C 1013.8 hPa South 5.6 km/h 5.6 km/h 83% 0 mm WeatherDisplay:10.37 W/m2 CLR
18:50 8.2 °C 5.4 °C 1013.8 hPa SSW 13 km/h 13 km/h 83% 0 mm WeatherDisplay:10.37 W/m2 CLR
18:55 8.2 °C 5.4 °C 1013.8 hPa SSE 8 km/h 8 km/h 83% 0 mm WeatherDisplay:10.37 W/m2 CLR
19:00 8.2 °C 5.4 °C 1013.8 hPa ENE 5.6 km/h 5.6 km/h 83% 0 mm WeatherDisplay:10.37 W/m2 CLR
19:05 8.2 °C 5.3 °C 1013.8 hPa South 9.3 km/h 9.3 km/h 82% 0 mm WeatherDisplay:10.37 W/m2 CLR
19:10 8.2 °C 5.1 °C 1013.8 hPa SW 5.6 km/h 5.6 km/h 81% 0 mm WeatherDisplay:10.37 W/m2 CLR
19:15 8.2 °C 4.9 °C 1014.1 hPa SSW 13 km/h 13 km/h 80% 0 mm WeatherDisplay:10.37 W/m2 CLR
19:20 8.2 °C 4.9 °C 1014.1 hPa WSW 5.6 km/h 5.6 km/h 80% 0 mm WeatherDisplay:10.37 W/m2 CLR
19:25 8.2 °C 4.7 °C 1014.1 hPa SSW 11.1 km/h 11.1 km/h 79% 0 mm WeatherDisplay:10.37 W/m2 CLR
19:30 8.2 °C 4.6 °C 1014.1 hPa SSW 14.8 km/h 14.8 km/h 78% 0 mm WeatherDisplay:10.37 W/m2 CLR
19:35 8.2 °C 4.6 °C 1014.1 hPa South 5.6 km/h 5.6 km/h 78% 0 mm WeatherDisplay:10.37 W/m2 CLR
19:40 8.1 °C 4.5 °C 1014.1 hPa South 7.4 km/h 7.4 km/h 78% 0 mm WeatherDisplay:10.37 W/m2 CLR
19:45 8.1 °C 4.5 °C 1014.1 hPa South 5.6 km/h 5.6 km/h 78% 0 mm WeatherDisplay:10.37 W/m2 CLR
19:50 8.1 °C 4.6 °C 1014.1 hPa SSE 3.7 km/h 3.7 km/h 79% 0 mm WeatherDisplay:10.37 W/m2 CLR
19:55 8 °C 5.1 °C 1014.4 hPa South 6.4 km/h 6.4 km/h 82% 0 mm WeatherDisplay:10.37 W/m2 CLR
20:00 7.9 °C 5.2 °C 1014.4 hPa SSW 9.3 km/h 9.3 km/h 83% 0 mm WeatherDisplay:10.37 W/m2 CLR
20:05 7.9 °C 5.5 °C 1014.4 hPa South 11.3 km/h 11.3 km/h 85% 0 mm WeatherDisplay:10.37 W/m2 CLR
20:10 7.8 °C 5.4 °C 1014.4 hPa South 5.6 km/h 5.6 km/h 85% 0 mm WeatherDisplay:10.37 W/m2 CLR
20:15 7.7 °C 5.5 °C 1014.4 hPa WSW 5.6 km/h 5.6 km/h 86% 0 mm WeatherDisplay:10.37 W/m2 CLR
20:20 7.6 °C 5.6 °C 1014.8 hPa SE 9.7 km/h 9.7 km/h 87% 0 mm WeatherDisplay:10.37 W/m2 CLR
20:25 7.5 °C 5.3 °C 1014.8 hPa South 9.3 km/h 9.3 km/h 86% 0 mm WeatherDisplay:10.37 W/m2 CLR
20:30 7.5 °C 5.3 °C 1014.8 hPa SSE 9.3 km/h 9.3 km/h 86% 0 mm WeatherDisplay:10.37 W/m2 CLR
20:35 7.4 °C 5.3 °C 1014.8 hPa South 14.5 km/h 14.5 km/h 86% 0 mm WeatherDisplay:10.37 W/m2 CLR
20:40 7.4 °C 5.2 °C 1015.1 hPa SSW 13 km/h 13 km/h 86% 0 mm WeatherDisplay:10.37 W/m2 CLR
20:45 7.4 °C 5.2 °C 1015.1 hPa South 5.6 km/h 5.6 km/h 86% 0 mm WeatherDisplay:10.37 W/m2 CLR
20:50 7.3 °C 5 °C 1015.1 hPa SW 5.6 km/h 5.6 km/h 85% 0 mm WeatherDisplay:10.37 W/m2 CLR
20:55 7.3 °C 5 °C 1015.5 hPa SSW 5.6 km/h 5.6 km/h 85% 0 mm WeatherDisplay:10.37 W/m2 CLR
21:00 7.3 °C 4.9 °C 1015.1 hPa SSW 3.7 km/h 3.7 km/h 85% 0 mm WeatherDisplay:10.37 W/m2 CLR
21:05 7.3 °C 5.1 °C 1015.5 hPa NW 6.4 km/h 6.4 km/h 86% 0 mm WeatherDisplay:10.37 W/m2 CLR
21:10 7.3 °C 5.1 °C 1015.5 hPa SE 4.8 km/h 4.8 km/h 86% 0 mm WeatherDisplay:10.37 W/m2 CLR
21:15 7.2 °C 4.9 °C 1015.5 hPa SSW 6.4 km/h 6.4 km/h 85% 0 mm WeatherDisplay:10.37 W/m2 CLR
21:20 7.2 °C 5.1 °C 1015.5 hPa SSW 5.6 km/h 5.6 km/h 86% 0 mm WeatherDisplay:10.37 W/m2 CLR
21:25 7.2 °C 4.8 °C 1015.5 hPa South 7.4 km/h 7.4 km/h 85% 0 mm WeatherDisplay:10.37 W/m2 CLR
21:30 7.1 °C 4.8 °C 1015.8 hPa South 7.4 km/h 7.4 km/h 85% 0 mm WeatherDisplay:10.37 W/m2 CLR
21:35 7.1 °C 4.7 °C 1015.8 hPa WSW 11.1 km/h 11.1 km/h 85% 0 mm WeatherDisplay:10.37 W/m2 CLR
21:40 7 °C 4.8 °C 1015.8 hPa South 5.6 km/h 5.6 km/h 86% 0 mm WeatherDisplay:10.37 W/m2 CLR
21:45 7 °C 4.8 °C 1015.8 hPa South 9.3 km/h 9.3 km/h 86% 0 mm WeatherDisplay:10.37 W/m2 CLR
21:50 6.9 °C 4.8 °C 1016.1 hPa SE 9.3 km/h 9.3 km/h 86% 0 mm WeatherDisplay:10.37 W/m2 CLR
21:55 6.9 °C 4.8 °C 1016.1 hPa SSW 5.6 km/h 5.6 km/h 86% 0 mm WeatherDisplay:10.37 W/m2 CLR
22:00 6.9 °C 4.8 °C 1016.1 hPa SSW 5.6 km/h 5.6 km/h 86% 0 mm WeatherDisplay:10.37 W/m2 CLR
22:05 6.9 °C 4.7 °C 1016.1 hPa SSW 5.6 km/h 5.6 km/h 86% 0 mm WeatherDisplay:10.37 W/m2 CLR
22:10 6.8 °C 4.8 °C 1016.1 hPa South 3.7 km/h 3.7 km/h 87% 0 mm WeatherDisplay:10.37 W/m2 CLR
22:15 6.7 °C 4.9 °C 1016.1 hPa South 3.7 km/h 3.7 km/h 88% 0 mm WeatherDisplay:10.37 W/m2 CLR
22:20 6.6 °C 4.8 °C 1016.1 hPa South 5.6 km/h 5.6 km/h 88% 0 mm WeatherDisplay:10.37 W/m2 CLR
22:25 6.6 °C 4.7 °C 1016.1 hPa SE 5.6 km/h 5.6 km/h 88% 0 mm WeatherDisplay:10.37 W/m2 CLR
22:30 6.6 °C 4.7 °C 1016.5 hPa South 9.3 km/h 9.3 km/h 88% 0 mm WeatherDisplay:10.37 W/m2 CLR
22:35 6.6 °C 4.6 °C 1016.5 hPa South 11.1 km/h 11.1 km/h 87% 0 mm WeatherDisplay:10.37 W/m2 CLR
22:40 6.6 °C 4.6 °C 1016.5 hPa South 7.4 km/h 7.4 km/h 87% 0 mm WeatherDisplay:10.37 W/m2 CLR
22:45 6.6 °C 4.6 °C 1016.5 hPa South 13 km/h 13 km/h 87% 0 mm WeatherDisplay:10.37 W/m2 CLR
22:50 6.6 °C 4.6 °C 1016.8 hPa South 5.6 km/h 5.6 km/h 87% 0 mm WeatherDisplay:10.37 W/m2 CLR
22:55 6.6 °C 4.6 °C 1016.8 hPa South 6.4 km/h 6.4 km/h 87% 0 mm WeatherDisplay:10.37 W/m2 CLR
23:00 6.7 °C 4.7 °C 1016.8 hPa South 3.7 km/h 3.7 km/h 87% 0 mm WeatherDisplay:10.37 W/m2 CLR
23:05 6.7 °C 4.7 °C 1016.8 hPa SSW 9.3 km/h 9.3 km/h 87% 0 mm WeatherDisplay:10.37 W/m2 CLR
23:10 6.7 °C 4.7 °C 1016.8 hPa SSW 14.8 km/h 14.8 km/h 87% 0 mm WeatherDisplay:10.37 W/m2 CLR
23:15 6.6 °C 4.6 °C 1016.8 hPa SSW 6.4 km/h 6.4 km/h 87% 0 mm WeatherDisplay:10.37 W/m2 CLR
23:20 6.6 °C 4.8 °C 1016.8 hPa WSW 5.6 km/h 5.6 km/h 88% 0 mm WeatherDisplay:10.37 W/m2 CLR
23:25 6.6 °C 4.6 °C 1016.8 hPa SSW 7.4 km/h 7.4 km/h 87% 0 mm WeatherDisplay:10.37 W/m2 CLR
23:30 6.6 °C 4.4 °C 1017.2 hPa SSE 11.1 km/h 11.1 km/h 86% 0 mm WeatherDisplay:10.37 W/m2 CLR
23:35 6.6 °C 4.8 °C 1017.2 hPa South 8 km/h 8 km/h 88% 0 mm WeatherDisplay:10.37 W/m2 CLR
23:40 6.6 °C 4.6 °C 1017.2 hPa SSW 5.6 km/h 5.6 km/h 87% 0 mm WeatherDisplay:10.37 W/m2 CLR
23:45 6.6 °C 4.6 °C 1017.2 hPa SSE 5.6 km/h 5.6 km/h 87% 0 mm WeatherDisplay:10.37 W/m2 CLR
23:50 6.5 °C 4.7 °C 1017.2 hPa SSW 5.6 km/h 5.6 km/h 88% 0 mm WeatherDisplay:10.37 W/m2 CLR
23:55 6.4 °C 4.6 °C 1017.2 hPa SSE 6.4 km/h 6.4 km/h 88% 0 mm WeatherDisplay:10.37 W/m2 CLR
VanCam Weather
Compliments of Weather Underground - 4 mb